createdAt,value
2018-02-17T00:01:36.534Z,4.40
2018-02-17T00:04:04.167Z,4.40
2018-02-17T00:06:31.786Z,4.50
2018-02-17T00:08:59.580Z,4.50
2018-02-17T00:11:28.102Z,4.60
2018-02-17T00:13:55.919Z,4.50
2018-02-17T00:16:23.609Z,4.60
2018-02-17T00:18:51.198Z,4.60
2018-02-17T00:21:18.792Z,4.60
2018-02-17T00:23:46.433Z,4.60
2018-02-17T00:26:14.994Z,4.60
2018-02-17T00:28:42.760Z,4.70
2018-02-17T00:31:10.338Z,4.70
2018-02-17T00:33:38.058Z,4.70
2018-02-17T00:36:05.814Z,4.70
2018-02-17T00:38:34.317Z,4.70
2018-02-17T00:41:01.953Z,4.70
2018-02-17T00:43:29.587Z,4.70
2018-02-17T00:45:57.246Z,4.70
2018-02-17T00:48:24.863Z,4.60
2018-02-17T00:50:52.460Z,4.60
2018-02-17T00:53:20.818Z,4.50
2018-02-17T00:55:48.448Z,4.50
2018-02-17T00:58:16.242Z,4.50
2018-02-17T01:00:45.581Z,4.50
2018-02-17T01:03:14.023Z,4.50
2018-02-17T01:05:41.696Z,4.50
2018-02-17T01:08:09.270Z,4.50
2018-02-17T01:10:36.841Z,4.50
2018-02-17T01:13:04.498Z,4.50
2018-02-17T01:15:32.106Z,4.50
2018-02-17T01:17:59.686Z,4.50
2018-02-17T01:20:27.303Z,4.50
2018-02-17T01:22:54.911Z,4.60
2018-02-17T01:25:22.527Z,4.50
2018-02-17T01:27:50.171Z,4.50
2018-02-17T01:30:18.480Z,4.50
2018-02-17T01:32:46.074Z,4.50
2018-02-17T01:35:14.417Z,4.50
2018-02-17T01:37:42.057Z,4.50
2018-02-17T01:40:09.688Z,4.40
2018-02-17T01:42:38.034Z,4.50
2018-02-17T01:45:05.767Z,4.50
2018-02-17T01:47:33.348Z,4.50
2018-02-17T01:50:01.048Z,4.50
2018-02-17T01:52:29.388Z,4.50
2018-02-17T01:54:57.046Z,4.50
2018-02-17T01:57:24.784Z,4.50
2018-02-17T01:59:52.381Z,4.50
2018-02-17T02:02:19.960Z,4.50
2018-02-17T02:04:47.658Z,4.50
2018-02-17T02:07:16.004Z,4.60
2018-02-17T02:09:43.624Z,4.50
2018-02-17T02:12:11.222Z,4.50
2018-02-17T02:14:38.935Z,4.50
2018-02-17T02:17:07.271Z,4.60
2018-02-17T02:19:34.902Z,4.50
2018-02-17T02:22:02.478Z,4.60
2018-02-17T02:24:30.052Z,4.50
2018-02-17T02:26:57.720Z,4.50
2018-02-17T02:29:25.304Z,4.50
2018-02-17T02:31:52.912Z,4.50
2018-02-17T02:34:20.499Z,4.50
2018-02-17T02:36:48.096Z,4.50
2018-02-17T02:39:15.699Z,4.40
2018-02-17T02:41:43.314Z,4.20
2018-02-17T02:44:11.980Z,4.40
2018-02-17T02:46:39.567Z,4.30
2018-02-17T02:49:07.189Z,4.30
2018-02-17T02:51:34.824Z,4.30
2018-02-17T02:54:03.216Z,4.20
2018-02-17T02:56:31.580Z,4.10
2018-02-17T02:58:59.203Z,4.20
2018-02-17T03:01:26.792Z,4.10
2018-02-17T03:03:54.420Z,4.10
2018-02-17T03:06:22.039Z,4.10
2018-02-17T03:08:50.416Z,4.10
2018-02-17T03:11:17.988Z,4.00
2018-02-17T03:13:45.558Z,4.10
2018-02-17T03:16:13.914Z,4.00
2018-02-17T03:18:41.502Z,4.00
2018-02-17T03:21:09.833Z,4.00
2018-02-17T03:23:37.431Z,4.00
2018-02-17T03:26:05.786Z,4.00
2018-02-17T03:28:33.378Z,4.00
2018-02-17T03:31:01.748Z,4.00
2018-02-17T03:33:29.352Z,4.00
2018-02-17T03:35:56.934Z,4.00
2018-02-17T03:38:24.537Z,4.00
2018-02-17T03:40:52.144Z,4.00
2018-02-17T03:43:20.524Z,4.00
2018-02-17T03:45:48.102Z,4.00
2018-02-17T03:48:15.703Z,3.90
2018-02-17T03:50:43.271Z,3.90
2018-02-17T03:53:10.876Z,3.90
2018-02-17T03:55:38.464Z,3.90
2018-02-17T03:58:06.054Z,3.80
2018-02-17T04:00:33.661Z,3.80
2018-02-17T04:03:01.210Z,3.70
2018-02-17T04:05:28.854Z,3.70
2018-02-17T04:07:56.469Z,3.70
2018-02-17T04:10:24.064Z,3.60
2018-02-17T04:12:51.613Z,3.60
2018-02-17T04:15:19.279Z,3.50
2018-02-17T04:17:46.854Z,3.50
2018-02-17T04:20:14.631Z,3.50
2018-02-17T04:22:42.216Z,3.40
2018-02-17T04:25:10.558Z,3.30
2018-02-17T04:27:38.131Z,3.30
2018-02-17T04:30:05.727Z,3.30
2018-02-17T04:32:33.371Z,3.30
2018-02-17T04:35:01.015Z,3.20
2018-02-17T04:37:28.726Z,3.20
2018-02-17T04:39:57.264Z,3.20
2018-02-17T04:42:27.535Z,3.20
2018-02-17T04:45:10.241Z,3.20
2018-02-17T04:47:41.366Z,3.10
2018-02-17T04:53:28.752Z,3.10
2018-02-17T04:56:11.272Z,3.00
2018-02-17T04:58:42.698Z,3.00
2018-02-17T05:04:19.584Z,2.90
2018-02-17T05:06:49.925Z,2.90
2018-02-17T05:09:18.381Z,2.90
2018-02-17T05:11:46.048Z,2.90
2018-02-17T05:17:26.539Z,2.90
2018-02-17T05:20:04.112Z,2.90
2018-02-17T05:22:33.448Z,2.80
2018-02-17T05:25:07.310Z,2.80
2018-02-17T05:27:36.621Z,2.80
2018-02-17T05:30:06.968Z,2.80
2018-02-17T05:32:36.350Z,2.80
2018-02-17T05:38:08.764Z,2.90
2018-02-17T05:40:37.343Z,2.90
2018-02-17T05:43:05.135Z,2.90
2018-02-17T05:45:36.167Z,2.90
2018-02-17T05:48:03.816Z,2.90
2018-02-17T05:50:34.035Z,2.90
2018-02-17T05:53:01.656Z,2.90
2018-02-17T05:55:29.299Z,2.90
2018-02-17T05:57:56.982Z,2.90
2018-02-17T06:00:24.563Z,3.00
2018-02-17T06:02:52.159Z,3.00
2018-02-17T06:05:19.884Z,3.00
2018-02-17T06:07:47.496Z,3.00
2018-02-17T06:10:15.103Z,3.00
2018-02-17T06:12:42.724Z,3.00
2018-02-17T06:15:10.304Z,3.00
2018-02-17T06:17:37.936Z,3.00
2018-02-17T06:20:05.580Z,3.00
2018-02-17T06:22:33.283Z,3.00
2018-02-17T06:25:00.922Z,3.00
2018-02-17T06:27:28.613Z,3.00
2018-02-17T06:29:56.971Z,3.10
2018-02-17T06:32:25.242Z,3.10
2018-02-17T06:34:52.804Z,3.00
2018-02-17T06:37:20.394Z,2.90
2018-02-17T06:39:48.036Z,2.70
2018-02-17T06:42:15.617Z,2.70
2018-02-17T06:44:43.257Z,2.80
2018-02-17T06:47:10.865Z,3.00
2018-02-17T06:49:38.469Z,3.10
2018-02-17T06:52:06.036Z,3.20
2018-02-17T06:54:33.640Z,3.30
2018-02-17T06:57:01.203Z,3.30
2018-02-17T06:59:28.815Z,3.20
2018-02-17T07:01:56.408Z,3.20
2018-02-17T07:04:23.990Z,3.20
2018-02-17T07:06:51.607Z,3.20
2018-02-17T07:09:19.195Z,3.30
2018-02-17T07:11:46.786Z,3.30
2018-02-17T07:14:14.400Z,3.30
2018-02-17T07:16:42.022Z,3.30
2018-02-17T07:19:10.007Z,3.40
2018-02-17T07:21:38.383Z,3.50
2018-02-17T07:24:06.018Z,3.50
2018-02-17T07:26:33.611Z,3.50
2018-02-17T07:29:02.013Z,3.70
2018-02-17T07:31:29.603Z,3.70
2018-02-17T07:33:57.249Z,3.70
2018-02-17T07:36:25.592Z,3.90
2018-02-17T07:38:53.194Z,3.80
2018-02-17T07:41:20.816Z,3.90
2018-02-17T07:43:49.912Z,3.90
2018-02-17T07:46:19.114Z,3.90
2018-02-17T07:48:46.675Z,3.90
2018-02-17T07:51:14.304Z,3.80
2018-02-17T07:53:41.967Z,3.80
2018-02-17T07:56:09.530Z,3.90
2018-02-17T07:58:37.837Z,3.90
2018-02-17T08:01:06.988Z,3.80
2018-02-17T08:03:34.541Z,3.80
2018-02-17T08:06:02.168Z,3.90
2018-02-17T08:08:29.770Z,3.90
2018-02-17T08:10:57.382Z,4.00
2018-02-17T08:13:25.428Z,4.10
2018-02-17T08:15:53.775Z,4.20
2018-02-17T08:18:21.351Z,4.40
2018-02-17T08:20:49.223Z,4.50
2018-02-17T08:23:16.847Z,4.70
2018-02-17T08:25:44.480Z,4.80
2018-02-17T08:28:12.086Z,4.80
2018-02-17T08:30:39.760Z,4.90
2018-02-17T08:33:08.194Z,5.00
2018-02-17T08:35:35.791Z,5.00
2018-02-17T08:38:03.378Z,5.10
2018-02-17T08:40:30.956Z,5.20
2018-02-17T08:42:58.580Z,5.30
2018-02-17T08:45:26.235Z,5.40
2018-02-17T08:47:53.871Z,5.60
2018-02-17T08:50:21.635Z,5.70
2018-02-17T08:52:49.245Z,5.80
2018-02-17T08:55:16.832Z,5.90
2018-02-17T08:57:44.447Z,5.90
2018-02-17T09:00:12.093Z,6.00
2018-02-17T09:02:39.749Z,6.10
2018-02-17T09:05:07.382Z,6.20
2018-02-17T09:07:35.201Z,6.50
2018-02-17T09:10:02.816Z,6.60
2018-02-17T09:12:30.425Z,6.70
2018-02-17T09:14:58.035Z,6.70
2018-02-17T09:17:25.823Z,6.90
2018-02-17T09:19:53.421Z,7.00
2018-02-17T09:22:21.070Z,7.10
2018-02-17T09:24:48.645Z,7.30
2018-02-17T09:27:16.273Z,7.40
2018-02-17T09:29:43.859Z,7.50
2018-02-17T09:32:11.428Z,7.60
2018-02-17T09:34:39.060Z,7.60
2018-02-17T09:37:06.622Z,7.60
2018-02-17T09:39:34.377Z,7.60
2018-02-17T09:42:02.745Z,7.40
2018-02-17T09:44:31.228Z,7.40
2018-02-17T09:46:58.854Z,7.40
2018-02-17T09:49:27.155Z,7.50
2018-02-17T09:51:54.756Z,7.50
2018-02-17T09:54:24.786Z,7.60
2018-02-17T09:56:52.413Z,7.90
2018-02-17T09:59:20.047Z,8.10
2018-02-17T10:01:47.672Z,8.20
2018-02-17T10:04:15.277Z,8.40
2018-02-17T10:06:44.517Z,8.50
2018-02-17T10:09:12.088Z,8.60
2018-02-17T10:11:40.439Z,8.80
2018-02-17T10:14:10.047Z,8.70
2018-02-17T10:16:38.779Z,8.80
2018-02-17T10:19:06.413Z,8.90
2018-02-17T10:21:34.749Z,8.70
2018-02-17T10:24:02.645Z,8.70
2018-02-17T10:26:31.047Z,8.80
2018-02-17T10:28:59.456Z,8.90
2018-02-17T10:31:27.077Z,8.90
2018-02-17T10:33:56.147Z,8.90
2018-02-17T10:36:23.845Z,9.00
2018-02-17T10:38:52.614Z,9.00
2018-02-17T10:41:20.533Z,9.00
2018-02-17T10:43:48.650Z,9.00
2018-02-17T10:46:17.060Z,9.20
2018-02-17T10:48:44.658Z,9.20
2018-02-17T10:51:13.109Z,9.40
2018-02-17T10:53:40.741Z,9.40
2018-02-17T10:56:08.866Z,9.50
2018-02-17T10:58:36.929Z,9.60
2018-02-17T11:01:06.215Z,9.70
2018-02-17T11:03:33.844Z,9.70
2018-02-17T11:06:01.437Z,9.50
2018-02-17T11:08:29.136Z,9.50
2018-02-17T11:10:56.794Z,9.40
2018-02-17T11:13:25.189Z,9.40
2018-02-17T11:15:53.538Z,9.50
2018-02-17T11:18:21.259Z,9.50
2018-02-17T11:20:48.853Z,9.50
2018-02-17T11:23:16.616Z,9.50
2018-02-17T11:25:44.403Z,9.50
2018-02-17T11:28:12.322Z,9.40
2018-02-17T11:30:39.920Z,9.30
2018-02-17T11:33:08.838Z,9.30
2018-02-17T11:35:36.522Z,9.30
2018-02-17T11:38:04.082Z,9.30
2018-02-17T11:40:32.542Z,9.50
2018-02-17T11:43:00.149Z,9.50
2018-02-17T11:45:27.750Z,9.50
2018-02-17T11:47:55.389Z,9.60
2018-02-17T11:50:23.226Z,9.70
2018-02-17T11:52:51.624Z,9.70
2018-02-17T11:55:19.454Z,9.70
2018-02-17T11:57:47.085Z,9.70
2018-02-17T12:00:15.048Z,9.70
2018-02-17T12:02:42.787Z,9.80
2018-02-17T12:05:11.126Z,10.20
2018-02-17T12:07:38.846Z,10.20
2018-02-17T12:10:06.441Z,10.30
2018-02-17T12:12:34.176Z,10.40
2018-02-17T12:15:02.066Z,10.30
2018-02-17T12:17:32.686Z,10.10
2018-02-17T12:20:01.138Z,10.00
2018-02-17T12:22:29.654Z,9.60
2018-02-17T12:24:57.299Z,9.60
2018-02-17T12:27:25.681Z,9.30
2018-02-17T12:29:54.787Z,9.40
2018-02-17T12:32:22.420Z,9.40
2018-02-17T12:34:50.790Z,9.30
2018-02-17T12:37:18.400Z,9.30
2018-02-17T12:39:46.004Z,9.20
2018-02-17T12:42:13.756Z,9.20
2018-02-17T12:44:41.352Z,9.20
2018-02-17T12:47:08.925Z,9.30
2018-02-17T12:49:36.508Z,9.40
2018-02-17T12:52:04.212Z,9.60
2018-02-17T12:54:32.002Z,9.80
2018-02-17T12:56:59.767Z,9.80
2018-02-17T12:59:27.455Z,9.70
2018-02-17T13:01:55.298Z,9.50
2018-02-17T13:04:24.047Z,9.40
2018-02-17T13:06:51.790Z,9.50
2018-02-17T13:09:19.407Z,9.50
2018-02-17T13:11:47.432Z,9.70
2018-02-17T13:14:15.856Z,9.90
2018-02-17T13:16:43.477Z,9.90
2018-02-17T13:19:11.120Z,10.00
2018-02-17T13:21:39.167Z,10.00
2018-02-17T13:24:06.750Z,10.10
2018-02-17T13:26:34.349Z,10.20
2018-02-17T13:29:02.788Z,10.40
2018-02-17T13:31:30.373Z,10.40
2018-02-17T13:33:58.753Z,10.70
2018-02-17T13:36:26.452Z,10.70
2018-02-17T13:38:54.657Z,10.80
2018-02-17T13:41:22.376Z,10.90
2018-02-17T13:43:50.010Z,10.80
2018-02-17T13:46:17.636Z,10.80
2018-02-17T13:48:45.400Z,10.70
2018-02-17T13:51:13.032Z,10.60
2018-02-17T13:53:40.596Z,10.50
2018-02-17T13:56:09.233Z,10.30
2018-02-17T13:58:36.870Z,10.30
2018-02-17T14:01:04.475Z,10.30
2018-02-17T14:03:32.062Z,10.20
2018-02-17T14:05:59.623Z,10.20
2018-02-17T14:08:27.263Z,10.40
2018-02-17T14:10:54.847Z,10.50
2018-02-17T14:13:22.454Z,10.60
2018-02-17T14:15:50.101Z,10.70
2018-02-17T14:18:18.684Z,10.70
2018-02-17T14:20:47.034Z,10.80
2018-02-17T14:23:14.772Z,10.80
2018-02-17T14:25:42.353Z,11.20
2018-02-17T14:28:10.595Z,11.90
2018-02-17T14:30:38.192Z,12.50
2018-02-17T14:33:05.832Z,13.10
2018-02-17T14:35:33.552Z,14.00
2018-02-17T14:38:02.728Z,15.60
2018-02-17T14:40:30.660Z,16.50
2018-02-17T14:42:58.860Z,16.60
2018-02-17T14:45:26.486Z,17.10
2018-02-17T14:47:54.098Z,16.80
2018-02-17T14:50:21.833Z,16.90
2018-02-17T14:52:49.733Z,17.30
2018-02-17T14:55:17.450Z,17.70
2018-02-17T14:57:45.085Z,17.60
2018-02-17T15:00:14.277Z,18.00
2018-02-17T15:02:42.645Z,17.40
2018-02-17T15:05:10.312Z,17.40
2018-02-17T15:07:37.959Z,17.10
2018-02-17T15:10:05.782Z,18.10
2018-02-17T15:12:34.843Z,18.10
2018-02-17T15:15:03.134Z,18.10
2018-02-17T15:17:33.677Z,17.70
2018-02-17T15:20:01.388Z,17.70
2018-02-17T15:22:29.042Z,17.70
2018-02-17T15:24:56.664Z,17.80
2018-02-17T15:27:24.411Z,18.00
2018-02-17T15:29:52.032Z,17.60
2018-02-17T15:32:19.637Z,17.70
2018-02-17T15:34:47.226Z,17.70
2018-02-17T15:37:14.846Z,17.40
2018-02-17T15:39:42.499Z,17.50
2018-02-17T15:42:10.068Z,17.40
2018-02-17T15:44:37.683Z,17.60
2018-02-17T15:47:06.058Z,17.70
2018-02-17T15:49:35.146Z,17.40
2018-02-17T15:52:02.733Z,17.40
2018-02-17T15:54:31.081Z,17.00
2018-02-17T15:56:58.693Z,17.00
2018-02-17T15:59:27.703Z,16.30
2018-02-17T16:01:56.661Z,15.20
2018-02-17T16:04:26.212Z,14.10
2018-02-17T16:06:53.826Z,13.00
2018-02-17T16:09:21.454Z,12.20
2018-02-17T16:11:49.051Z,11.60
2018-02-17T16:14:16.638Z,11.20
2018-02-17T16:16:45.976Z,10.50
2018-02-17T16:19:13.585Z,10.50
2018-02-17T16:21:42.659Z,10.20
2018-02-17T16:24:10.254Z,10.00
2018-02-17T16:26:37.848Z,9.90
2018-02-17T16:29:05.411Z,9.80
2018-02-17T16:31:33.021Z,9.70
2018-02-17T16:34:00.587Z,9.60
2018-02-17T16:36:28.194Z,9.50
2018-02-17T16:38:55.812Z,9.50
2018-02-17T16:41:23.424Z,9.50
2018-02-17T16:43:51.025Z,9.50
2018-02-17T16:46:18.608Z,9.60
2018-02-17T16:48:46.199Z,9.80
2018-02-17T16:51:14.529Z,9.80
2018-02-17T16:53:42.108Z,9.80
2018-02-17T16:56:09.681Z,9.60
2018-02-17T16:58:37.300Z,9.60
2018-02-17T17:01:04.889Z,9.60
2018-02-17T17:03:32.466Z,9.50
2018-02-17T17:06:00.086Z,9.40
2018-02-17T17:08:27.718Z,9.30
2018-02-17T17:10:56.085Z,9.10
2018-02-17T17:13:23.720Z,9.00
2018-02-17T17:15:51.292Z,9.00
2018-02-17T17:18:18.846Z,9.00
2018-02-17T17:20:46.469Z,8.90
2018-02-17T17:23:14.034Z,8.70
2018-02-17T17:25:41.634Z,8.60
2018-02-17T17:28:09.289Z,8.60
2018-02-17T17:30:36.944Z,8.50
2018-02-17T17:33:04.738Z,8.40
2018-02-17T17:35:32.332Z,8.30
2018-02-17T17:37:59.891Z,8.30
2018-02-17T17:40:27.555Z,8.20
2018-02-17T17:42:55.533Z,8.20
2018-02-17T17:45:23.256Z,8.10
2018-02-17T17:47:51.720Z,8.00
2018-02-17T17:50:19.402Z,8.00
2018-02-17T17:52:47.005Z,8.00
2018-02-17T17:55:14.614Z,7.90
2018-02-17T17:57:42.213Z,7.80
2018-02-17T18:00:12.516Z,7.80
2018-02-17T18:02:40.328Z,7.70
2018-02-17T18:05:08.849Z,7.70
2018-02-17T18:07:36.476Z,7.60
2018-02-17T18:10:04.080Z,7.50
2018-02-17T18:15:06.496Z,7.30
2018-02-17T18:17:34.113Z,7.30
2018-02-17T18:20:06.680Z,7.20
2018-02-17T18:22:34.368Z,7.20
2018-02-17T18:25:02.728Z,7.10
2018-02-17T18:27:33.366Z,7.00
2018-02-17T18:30:01.162Z,7.00
2018-02-17T18:32:28.887Z,7.00
2018-02-17T18:34:57.397Z,6.90
2018-02-17T18:37:27.258Z,6.90
2018-02-17T18:39:55.601Z,6.90
2018-02-17T18:42:24.448Z,6.90
2018-02-17T18:44:52.680Z,6.90
2018-02-17T18:47:20.287Z,6.90
2018-02-17T18:49:47.925Z,7.00
2018-02-17T18:52:15.642Z,6.70
2018-02-17T18:54:43.308Z,7.00
2018-02-17T18:57:11.766Z,7.00
2018-02-17T18:59:42.860Z,7.00
2018-02-17T19:02:10.495Z,7.30
2018-02-17T19:04:38.135Z,7.00
2018-02-17T19:07:05.773Z,6.90
2018-02-17T19:09:33.716Z,6.90
2018-02-17T19:12:01.419Z,6.80
2018-02-17T19:14:29.788Z,6.80
2018-02-17T19:16:57.434Z,6.80
2018-02-17T19:19:25.199Z,6.80
2018-02-17T19:21:52.825Z,6.70
2018-02-17T19:24:20.418Z,6.70
2018-02-17T19:26:48.423Z,6.70
2018-02-17T19:29:16.062Z,6.70
2018-02-17T19:31:44.364Z,6.60
2018-02-17T19:34:11.969Z,6.60
2018-02-17T19:36:39.584Z,6.60
2018-02-17T19:39:07.193Z,6.60
2018-02-17T19:41:36.299Z,6.60
2018-02-17T19:44:04.659Z,6.60
2018-02-17T19:46:32.295Z,6.60
2018-02-17T19:48:59.879Z,6.60
2018-02-17T19:51:27.526Z,6.50
2018-02-17T19:53:55.133Z,6.40
2018-02-17T19:56:23.530Z,6.30
2018-02-17T19:58:51.154Z,6.30
2018-02-17T20:01:18.768Z,6.30
2018-02-17T20:03:46.507Z,6.30
2018-02-17T20:06:14.928Z,6.30
2018-02-17T20:08:42.608Z,6.30
2018-02-17T20:11:10.850Z,6.30
2018-02-17T20:13:39.248Z,6.40
2018-02-17T20:16:07.669Z,6.40
2018-02-17T20:18:35.407Z,6.40
2018-02-17T20:21:03.039Z,6.40
2018-02-17T20:23:30.626Z,6.40
2018-02-17T20:25:58.216Z,6.40
2018-02-17T20:28:25.803Z,6.40
2018-02-17T20:30:53.411Z,6.40
2018-02-17T20:33:21.038Z,6.30
2018-02-17T20:35:48.651Z,6.30
2018-02-17T20:38:16.249Z,6.30
2018-02-17T20:40:44.952Z,6.20
2018-02-17T20:43:12.587Z,6.20
2018-02-17T20:45:40.379Z,6.20
2018-02-17T20:48:08.144Z,6.20
2018-02-17T20:50:35.798Z,6.20
2018-02-17T20:53:04.972Z,6.20
2018-02-17T20:55:35.965Z,6.20
2018-02-17T20:58:07.638Z,6.20
2018-02-17T21:00:35.340Z,6.20
2018-02-17T21:03:02.982Z,6.20
2018-02-17T21:05:30.668Z,6.20
2018-02-17T21:07:58.229Z,6.10
2018-02-17T21:10:25.827Z,6.10
2018-02-17T21:12:58.243Z,6.10
2018-02-17T21:15:25.853Z,6.10
2018-02-17T21:17:53.743Z,6.10
2018-02-17T21:20:22.849Z,6.10
2018-02-17T21:22:51.269Z,6.00
2018-02-17T21:25:18.829Z,6.00
2018-02-17T21:27:46.422Z,6.00
2018-02-17T21:30:15.078Z,6.00
2018-02-17T21:32:42.661Z,5.90
2018-02-17T21:35:10.264Z,5.90
2018-02-17T21:37:37.846Z,6.00
2018-02-17T21:40:06.221Z,6.00
2018-02-17T21:42:36.004Z,6.00
2018-02-17T21:45:03.590Z,6.00
2018-02-17T21:47:31.208Z,6.10
2018-02-17T21:49:58.845Z,6.10
2018-02-17T21:52:27.484Z,6.20
2018-02-17T21:54:55.273Z,6.30
2018-02-17T21:57:22.858Z,6.30
2018-02-17T21:59:51.224Z,6.30
2018-02-17T22:02:18.897Z,6.20
2018-02-17T22:04:47.363Z,6.20
2018-02-17T22:07:14.960Z,6.20
2018-02-17T22:09:42.543Z,6.20
2018-02-17T22:12:10.151Z,6.20
2018-02-17T22:14:38.487Z,6.10
2018-02-17T22:17:06.073Z,6.10
2018-02-17T22:19:33.661Z,6.10
2018-02-17T22:22:01.279Z,6.20
2018-02-17T22:24:28.854Z,6.10
2018-02-17T22:26:56.848Z,6.10
2018-02-17T22:29:24.534Z,6.10
2018-02-17T22:31:52.881Z,6.20
2018-02-17T22:34:20.509Z,6.20
2018-02-17T22:36:48.100Z,6.20
2018-02-17T22:39:15.768Z,6.20
2018-02-17T22:41:43.568Z,6.30
2018-02-17T22:44:11.424Z,6.30
2018-02-17T22:46:39.881Z,6.30
2018-02-17T22:49:07.490Z,6.30
2018-02-17T22:51:35.856Z,6.30
2018-02-17T22:54:05.293Z,6.30
2018-02-17T22:56:33.647Z,6.30
2018-02-17T22:59:01.246Z,6.30
2018-02-17T23:01:28.897Z,6.30
2018-02-17T23:03:57.304Z,6.30
2018-02-17T23:06:25.262Z,6.30
2018-02-17T23:08:53.259Z,6.30
2018-02-17T23:11:20.896Z,6.30
2018-02-17T23:13:48.481Z,6.30
2018-02-17T23:16:16.079Z,6.30
2018-02-17T23:18:43.829Z,6.30
2018-02-17T23:21:11.448Z,6.30
2018-02-17T23:23:39.809Z,6.40
2018-02-17T23:26:08.147Z,6.40
2018-02-17T23:28:35.799Z,6.40
2018-02-17T23:31:03.401Z,6.40
2018-02-17T23:33:30.976Z,6.40
2018-02-17T23:35:59.362Z,6.30
2018-02-17T23:38:26.967Z,6.30
2018-02-17T23:40:54.562Z,6.30
2018-02-17T23:43:22.137Z,6.20
2018-02-17T23:45:49.697Z,6.20
2018-02-17T23:48:17.342Z,6.20
2018-02-17T23:50:44.983Z,6.20
2018-02-17T23:53:12.583Z,6.20
2018-02-17T23:55:40.174Z,6.20
2018-02-17T23:58:08.577Z,6.20
